Česky Dansk Deutsch English Español Suomi Français Magyar Italiano Nederlands norsk Polski Português svenska Türkçe

 

Het Weer

Altenburg Nobitz (Duitsland)

17:20, 19 augustus 2016 (GMT)

NWNNE
WE
SWSSE
Home            
Altenburg Nobitz Leipzig-Schkeuditz Hof Dresden-Klotzsche Karlovy Vary Holzdorf Erfurt-Bindersleben Bayreuth Magdeburg, Sachsen-Anhalt Grafenwoehr Cottbus Flugplatz Praha / Ruzyne Preschen Berlin-Schoenefeld Kuemmersruck Berlin-Tempelhof Liberec Berlin-Tegel Nuernberg Hohenfels Braunschweig Kitzingen Usa \ Af Roth

Om een weerknop op uw website of weblog te plaatsen, copieer onderstaande code en plak die in uw pagina. In het eerste vakje staat HTML-code, in het tweede vakje UBB-code.


Add to Google

Details

Wind speed:1 bf, 3 kn, 1.5 m/s, 3.5 miles/h, 5.6 km/h
Wind direction:S, 180°
Visibility:Greater than 10000 m, 10 km, 32800 ft, 6.2 miles
Clouds:CAVOC
Temperature:25°C, 77°F
Gefühlte Temperatur:26°C, 78°F
Dew-point:12°C, 54°F
Atmospheric pressure:1010 hPa, 757.6 mmHg, 29.83 inHg, 0.997 atm
Relative humidity:44.3 %
METAR:EDAC 191720Z 18003KT CAVOK 25/12 Q1010

Snelkoppelingen

Actuele weersinformatie van de hele wereld. Voeg locaties toe met het plus (+) symbool. Deze snelkoppelingen kunnen worden toegevoegd aan Google.

Lid van de Technetium groep

website free tracking
StatCounter NetStat W3C Validator

24-10-2020 07:59:31
astro.technetium.be money.technetium.be phote.technetium.be tafeltennistafel.technetium.be www.ligfiets.net